Metar Cercanos

 

LEPA - Palma De Mallorc, Spain
Distance from station: ONO 38km
Actualización: 25/11/2017 03:00
Despejado
Despejado
 Viento del varies
Viento: varies 2 km/h
Temperatura: 10°C
Rocío: 10°C
Humedad: 100%
Barómetro: 1018 hPa
Resumen: Despejado
Visibility: greater than 10 km
2017/11/25 02:00 LEPA 250200Z VRB01KT CAVOK 10/10 Q1018 TEMPO 0500 FG
LEMH - Mahon/Menorca Is, Spain
Distance from station: ENE 105km
Actualización: 25/11/2017 03:00
Despejado
Despejado
 Viento del O
Viento: O 7 km/h
Temperatura: 16°C
Rocío: 13°C
Humedad: 83%
Barómetro: 1018 hPa
Clouds: Despejado
Visibility: 10 km
2017/11/25 02:00 LEMH 250200Z AUTO 26004KT 230V290 9999 NCD 16/13 Q1018
 
LEIB - Ibiza/Es Codola, Spain
Distance from station: OSO 165km
Actualización: 25/11/2017 00:00
NOT Current
Despejado
Despejado
 Viento del SO
Viento: SO 19 km/h
Temperatura: 18°C
Rocío: 16°C
Humedad: 88%
Barómetro: 1019 hPa
Resumen: Despejado
Visibility: greater than 10 km
2017/11/24 23:00 LEIB 242300Z 23010KT CAVOK 18/16 Q1019 NOSIG
LEBL - Barcelona Airpor, Spain
Distance from station: NNO 225km
Actualización: 25/11/2017 03:00
Despejado
Despejado
 Viento del NNO
Viento: NNO 11 km/h
Temperatura: 12°C
Rocío: 7°C
Humedad: 72%
Barómetro: 1016 hPa
Resumen: Despejado
Visibility: greater than 10 km
2017/11/25 02:00 LEBL 250200Z 33006KT CAVOK 12/07 Q1016 NOSIG
 
LEVC - Valencia (civ/Mi, Spain
Distance from station: NO 188km
Actualización: 25/11/2017 03:00
Despejado
Despejado
 Viento del varies
Viento: varies 2 km/h
Temperatura: 11°C
Rocío: 0°C
Humedad: 47%
Barómetro: 1018 hPa
Resumen: Despejado
Visibility: greater than 10 km
2017/11/25 02:00 LEVC 250200Z VRB01KT CAVOK 11/00 Q1018 NOSIG
LEGE - Gerona/Costa Bra, Spain
Distance from station: N 276km
Actualización: 25/11/2017 03:00
Mist, Parcialmente nuboso
Mist, Parcialmente nuboso
 Viento del varies
Viento: varies 2 km/h
Temperatura: 9°C
Rocío: 9°C
Humedad: 100%
Barómetro: 1015 hPa
Resumen: Mist
Clouds: Parcialmente nuboso
Visibility: 3 km
2017/11/25 02:00 LEGE 250200Z VRB01KT 2500 BR NSC 09/09 Q1015
 
LEAL - Alicante/El Alte, Spain
Distance from station: OSO 344km
Actualización: 25/11/2017 03:00
Despejado
Despejado
 Viento del O
Viento: O 11 km/h
Temperatura: 10°C
Sensación frio: 8°C
Rocío: 5°C
Humedad: 71%
Barómetro: 1019 hPa
Resumen: Despejado
Visibility: greater than 10 km
2017/11/25 02:00 LEAL 250200Z 28006KT 220V290 CAVOK 10/05 Q1019 NOSIG
LEAM - Almeria Airport, Spain
Distance from station: SSO 56km
Actualización: 25/11/2017 03:00
Despejado
Despejado
 Viento del varies
Viento: varies 2 km/h
Temperatura: 11°C
Rocío: 4°C
Humedad: 62%
Barómetro: 1020 hPa
Clouds: Despejado
Visibility: 10 km
2017/11/25 02:00 LEAM 250200Z AUTO VRB01KT 9999 NCD 11/04 Q1020
 
LEZG - Zaragoza (mil/Ci, Spain
Distance from station: NO 431km
Actualización: 25/11/2017 03:00
Parcialmente nuboso
Parcialmente nuboso
 Viento del SE
Viento: SE 11 km/h
Temperatura: 10°C
Sensación frio: 8°C
Rocío: 6°C
Humedad: 76%
Barómetro: 1017 hPa
Clouds: Parcialmente nuboso
Visibility: 10 km
Cloud details: Parcialmente nuboso 2591 m
2017/11/25 02:00 LEZG 250200Z 14006KT 100V160 9999 SCT085 10/06 Q1017
LEMD - Madrid/Barajas, Spain
Distance from station: ONO 234km
Actualización: 25/11/2017 03:00
Despejado
Despejado
 Viento del N
Viento: N 4 km/h
Temperatura: 6°C
Rocío: 6°C
Humedad: 100%
Barómetro: 1020 hPa
Resumen: Despejado
Visibility: greater than 10 km
2017/11/25 02:00 LEMD 250200Z 35002KT CAVOK 06/06 Q1020 NOSIG
 
LEGR - Granada Airport, Spain
Distance from station: OSO 62km
Actualización: 25/11/2017 03:00
Despejado
Despejado
 Viento del calm
Viento: Calma
Temperatura: 3°C
Rocío: 0°C
Humedad: 81%
Barómetro: 1022 hPa
Clouds: Despejado
Visibility: 10 km
2017/11/25 02:00 LEGR 250200Z AUTO 00000KT 9999 NCD 03/00 Q1022
LEMG - Malaga (civ/Mil), Spain
Distance from station: OSO 227km
Actualización: 25/11/2017 03:00
Despejado
Despejado
 Viento del ONO
Viento: ONO 15 km/h
Temperatura: 9°C
Sensación frio: 7°C
Rocío: 6°C
Humedad: 82%
Barómetro: 1020 hPa
Resumen: Despejado
Visibility: greater than 10 km
2017/11/25 02:00 LEMG 250200Z 29008KT CAVOK 09/06 Q1020 NOSIG
 
LEZL - Sevilla (civ/Mil, Spain
Distance from station: S 318km
Actualización: 25/11/2017 03:00
Despejado
Despejado
 Viento del varies
Viento: varies 2 km/h
Temperatura: 10°C
Rocío: 6°C
Humedad: 76%
Barómetro: 1020 hPa
Resumen: Despejado
Visibility: greater than 10 km
2017/11/25 02:00 LEZL 250200Z AUTO VRB01KT CAVOK 10/06 Q1020
LEVT - Vitoria, Spain
Distance from station: NO 226km
Actualización: 25/11/2017 03:00
Lluvia, Few clouds
Lluvia, Few clouds
 Viento del NO
Viento: NO 2 km/h
Temperatura: 10°C
Rocío: 8°C
Humedad: 88%
Barómetro: 1018 hPa
Resumen: Lluvia
Clouds: Few Clouds
Visibility: 10 km
Cloud details: Muy nuboso 457 m
Few Clouds 762 m
2017/11/25 02:00 LEVT 250200Z 32001KT 9999 RA BKN015 FEW025TCU 10/08 Q1018
 
LEBB - Bilbao/Sondica, Spain
Distance from station: NNO 235km
Actualización: 25/11/2017 03:00
Lluvia débil, Muy nuboso
Lluvia débil, Muy nuboso
 Viento del NO
Viento: NO 11 km/h
Temperatura: 13°C
Rocío: 12°C
Humedad: 94%
Barómetro: 1019 hPa
Resumen: Lluvia débil
Clouds: Muy nuboso
Visibility: 10 km
Cloud details: Few Clouds 244 m
Parcialmente nuboso 366 m
Muy nuboso 1829 m
2017/11/25 02:00 LEBB 250200Z AUTO 32006KT 290V350 9999 -RA FEW008/// SCT012/// BKN060/// 13/12 Q1019
LESO - San Sebastian/Fu, Spain
Distance from station: N 231km
Actualización: 25/11/2017 03:00
Lluvia, Muy nuboso
Lluvia, Muy nuboso
 Viento del OSO
Viento: OSO 15 km/h
Temperatura: 14°C
Rocío: 12°C
Humedad: 88%
Barómetro: 1018 hPa
Resumen: Lluvia
Clouds: Muy nuboso
Visibility: 9 km
Cloud details: Parcialmente nuboso 244 m
Muy nuboso 396 m
2017/11/25 02:00 LESO 250200Z AUTO 24008KT 210V290 9000 RA SCT008/// BKN013/// 14/12 Q1018
 
LEVD - Valladolid(Mil/C, Spain
Distance from station: ONO 239km
Actualización: 24/11/2017 21:30
NOT Current
Light drizzle, Muy nuboso
Light drizzle, Muy nuboso
 Viento del SO
Viento: SO 22 km/h
Temperatura: 10°C
Sensación frio: 7°C
Rocío: 9°C
Humedad: 94%
Barómetro: 1018 hPa
Resumen: Light Drizzle
Clouds: Muy nuboso
Visibility: 10 km
Cloud details: Parcialmente nuboso 671 m
Muy nuboso 823 m
Muy nuboso 1036 m
2017/11/24 20:30 LEVD 242030Z 22012KT 9999 -DZ SCT022 BKN027 BKN034 10/09 Q1018
LESA - Salamanca (civ/M, Spain
Distance from station: ONO 349km
Actualización: 24/11/2017 19:00
NOT Current
Muy nuboso
Muy nuboso
 Viento del O
Viento: O 15 km/h
Temperatura: 12°C
Rocío: 9°C
Humedad: 82%
Barómetro: 1019 hPa
Clouds: Muy nuboso
Visibility: 10 km
Cloud details: Parcialmente nuboso 762 m
Muy nuboso 1067 m
2017/11/24 18:00 LESA 241800Z 26008KT 9999 SCT025 BKN035 12/09 Q1019
 
LEXJ - Santander/Paraya, Spain
Distance from station: NNO 247km
Actualización: 25/11/2017 03:00
Cubierto
Cubierto
 Viento del O
Viento: O 6 km/h
Temperatura: 12°C
Rocío: 11°C
Humedad: 94%
Barómetro: 1019 hPa
Clouds: Cubierto
Visibility: 9 km
Cloud details: Parcialmente nuboso 488 m
Parcialmente nuboso 671 m
Cubierto 1006 m
2017/11/25 02:00 LEXJ 250200Z AUTO 27003KT 210V320 9000 SCT016/// SCT022/// OVC033/// 12/11 Q1019
LEAS - Asturias/Aviles, Spain
Distance from station: NO 214km
Actualización: 25/11/2017 03:00
Cubierto
Cubierto
 Viento del OSO
Viento: OSO 7 km/h
Temperatura: 10°C
Sensación frio: 9°C
Rocío: 9°C
Humedad: 94%
Barómetro: 1021 hPa
Clouds: Cubierto
Visibility: 10 km
Cloud details: Muy nuboso 1829 m
Cubierto 2134 m
2017/11/25 02:00 LEAS 250200Z AUTO 24004KT 9999 BKN060 OVC070 10/09 Q1021
 
LECO - La Coruna/Alvedr, Spain
Distance from station: ONO 222km
Actualización: 25/11/2017 03:00
Muy nuboso
Muy nuboso
 Viento del calm
Viento: Calma
Temperatura: 10°C
Rocío: 10°C
Humedad: 100%
Barómetro: 1022 hPa
Clouds: Muy nuboso
Visibility: 10 km
Cloud details: Few Clouds 853 m
Muy nuboso 1250 m
Muy nuboso 1463 m
2017/11/25 02:00 LECO 250200Z AUTO 00000KT 9999 FEW028/// BKN041/// BKN048/// 10/10 Q1022
LEVX - Vigo/Peinador, Spain
Distance from station: O 214km
Actualización: 25/11/2017 03:00
Patches of fog, Parcialmente nuboso
Patches of fog, Parcialmente nuboso
 Viento del NNE
Viento: NNE 7 km/h
Temperatura: 10°C
Sensación frio: 9°C
Rocío: 10°C
Humedad: 100%
Barómetro: 1019 hPa
Resumen: Patches of Fog
Clouds: Parcialmente nuboso
Visibility: 4 km
Cloud details: Parcialmente nuboso 30 m
2017/11/25 02:00 LEVX 250200Z 02004KT 350V050 4000 BCFG SCT001 10/10 Q1019 TEMPO 0300 FG